Preflight/Weather

The current temperature at Deer Valley airport is 24°C  or 75°F

Deer Valley Metar:

KDVT 230253Z 00000KT 10SM CLR 24/04 A2982 RMK AO2 SLP078 T02390044 53007

Terminal Area Forecast for Phoenix:

TAF AMD KPHX 230238Z 2303/2406 25005KT P6SM FEW250 TEMPO 2303/2305 34005KT FM230500 10005KT P6SM FEW250 FM232100 25004KT P6SM SCT250 FM240500 12004KT P6SM FEW150 SCT250